Time;durP1;ratioP1;P1;durP2;ratioP2;P2;SDS_P1;SDS_P2;PMS_P1;PMS_P2;Temp;Humidity;BMP_temperature;BMP_pressure;BME280_temperature;BME280_humidity;BME280_pressure;Samples;Min_cycle;Max_cycle;Signal;HPM_P1;HPM_P2
2023/12/20 00:01:01;;;;;;;11.50;1.40;;;5.60;99.90;;;;;;5131954;27;20149;-85
2023/12/20 00:03:27;;;;;;;16.70;1.38;;;5.00;99.90;;;;;;5140388;27;20075;-85
2023/12/20 00:05:53;;;;;;;15.55;2.03;;;5.60;99.90;;;;;;5098924;27;20122;-84
2023/12/20 00:08:18;;;;;;;14.77;1.63;;;5.60;99.90;;;;;;5124915;27;20039;-85
2023/12/20 00:10:44;;;;;;;12.88;1.63;;;5.40;99.90;;;;;;5136064;27;20101;-85
2023/12/20 00:13:10;;;;;;;17.38;2.40;;;5.60;99.90;;;;;;5154482;27;20051;-85
2023/12/20 00:15:36;;;;;;;13.80;1.40;;;5.00;99.90;;;;;;5155183;27;20054;-85
2023/12/20 00:18:02;;;;;;;11.65;1.27;;;5.00;99.90;;;;;;5119327;27;20042;-84
2023/12/20 00:20:29;;;;;;;15.77;1.40;;;5.00;99.90;;;;;;5154735;27;20034;-85
2023/12/20 00:22:56;;;;;;;16.13;1.92;;;5.00;99.90;;;;;;5136134;27;20046;-85
2023/12/20 00:25:22;;;;;;;17.55;1.58;;;3.90;99.90;;;;;;5136531;27;20398;-86
2023/12/20 00:27:47;;;;;;;11.02;1.50;;;6.00;99.90;;;;;;5119955;27;20043;-86
2023/12/20 00:30:13;;;;;;;14.98;1.95;;;5.50;99.90;;;;;;5136289;27;20483;-86
2023/12/20 00:32:39;;;;;;;22.27;1.80;;;5.00;99.90;;;;;;5118869;27;20510;-85
2023/12/20 00:35:05;;;;;;;15.27;1.95;;;5.90;99.90;;;;;;5135516;27;20391;-86
2023/12/20 00:37:30;;;;;;;12.60;1.48;;;5.10;99.90;;;;;;5136348;27;20783;-86
2023/12/20 00:39:56;;;;;;;14.20;1.38;;;5.80;99.90;;;;;;5135932;27;20493;-86
2023/12/20 00:42:22;;;;;;;14.43;2.08;;;4.60;99.90;;;;;;5136209;27;20050;-86
2023/12/20 00:44:47;;;;;;;15.68;1.60;;;5.20;99.90;;;;;;5136206;27;20138;-86
2023/12/20 00:47:13;;;;;;;15.50;1.70;;;4.60;99.90;;;;;;5135845;27;20501;-86
2023/12/20 00:49:39;;;;;;;24.02;1.90;;;5.60;99.90;;;;;;5154440;27;20050;-86
2023/12/20 00:52:05;;;;;;;10.38;1.67;;;4.20;99.90;;;;;;5154349;27;20045;-86
2023/12/20 00:54:30;;;;;;;12.20;1.42;;;5.10;99.90;;;;;;5136320;27;20054;-86
2023/12/20 00:56:56;;;;;;;16.20;1.52;;;5.90;99.90;;;;;;5154698;27;20471;-86
2023/12/20 00:59:22;;;;;;;10.90;1.33;;;5.20;99.90;;;;;;5118640;27;20118;-85
2023/12/20 01:01:47;;;;;;;17.92;1.85;;;6.10;99.90;;;;;;5153916;27;20507;-86
2023/12/20 01:04:13;;;;;;;16.23;1.95;;;5.60;99.90;;;;;;5153586;27;20034;-86
2023/12/20 01:06:39;;;;;;;10.55;1.52;;;4.90;99.90;;;;;;5136002;27;20043;-86
2023/12/20 01:09:04;;;;;;;11.32;1.20;;;5.20;99.90;;;;;;5136050;27;20038;-85
2023/12/20 01:11:30;;;;;;;15.00;2.03;;;6.00;99.90;;;;;;5134409;27;20042;-86
2023/12/20 01:13:56;;;;;;;19.25;2.10;;;5.70;99.90;;;;;;5154274;27;20042;-86
2023/12/20 01:16:21;;;;;;;16.10;1.80;;;4.50;99.90;;;;;;5135863;27;20487;-86
2023/12/20 01:18:47;;;;;;;19.05;2.65;;;6.00;99.90;;;;;;5135062;27;20050;-85
2023/12/20 01:21:13;;;;;;;8.35;1.25;;;6.00;99.90;;;;;;5135317;27;20047;-85
2023/12/20 01:23:38;;;;;;;15.10;1.90;;;5.60;99.90;;;;;;5135769;27;20050;-86
2023/12/20 01:26:05;;;;;;;13.52;1.42;;;4.90;99.90;;;;;;5136046;27;20047;-85
2023/12/20 01:28:31;;;;;;;15.23;1.95;;;5.60;99.90;;;;;;5154336;27;20041;-86
2023/12/20 01:30:57;;;;;;;29.60;3.13;;;5.20;99.90;;;;;;5135606;27;20042;-86
2023/12/20 01:33:23;;;;;;;8.23;1.48;;;5.60;99.90;;;;;;5134767;27;20495;-85
2023/12/20 01:35:49;;;;;;;11.65;1.50;;;6.10;99.90;;;;;;5135386;27;20050;-85
2023/12/20 01:38:18;;;;;;;8.93;1.40;;;6.10;99.90;;;;;;5118237;27;20049;-86
2023/12/20 01:40:44;;;;;;;10.75;1.92;;;6.00;99.90;;;;;;5154270;27;20042;-85
2023/12/20 01:43:11;;;;;;;13.38;1.35;;;6.10;99.90;;;;;;5153962;27;20038;-85
2023/12/20 01:45:37;;;;;;;20.25;2.20;;;5.30;99.90;;;;;;5152933;27;20035;-85
2023/12/20 01:48:05;;;;;;;15.18;1.60;;;5.50;99.90;;;;;;5135016;27;20042;-85
2023/12/20 01:50:32;;;;;;;16.23;1.60;;;5.20;99.90;;;;;;5135503;27;20039;-85
2023/12/20 01:53:00;;;;;;;14.18;1.67;;;5.60;99.90;;;;;;5134722;27;20574;-85
2023/12/20 01:55:29;;;;;;;10.77;1.42;;;6.10;99.90;;;;;;5134710;27;20038;-86
2023/12/20 01:57:56;;;;;;;15.55;1.58;;;5.90;99.90;;;;;;5153952;27;20045;-85
2023/12/20 02:00:23;;;;;;;14.23;2.33;;;5.10;99.90;;;;;;5134705;27;20043;-85
2023/12/20 02:02:52;;;;;;;18.52;2.08;;;5.30;99.90;;;;;;5154006;27;20034;-86
2023/12/20 02:05:18;;;;;;;17.13;2.10;;;5.20;99.90;;;;;;5139086;27;20390;-85
2023/12/20 02:07:44;;;;;;;19.27;1.85;;;5.20;99.90;;;;;;5161855;27;20103;-86
2023/12/20 02:10:09;;;;;;;22.95;2.72;;;6.10;99.90;;;;;;5140022;27;20394;-85
2023/12/20 02:12:35;;;;;;;17.45;1.70;;;5.50;99.90;;;;;;5157674;27;20093;-86
2023/12/20 02:15:01;;;;;;;16.73;2.38;;;5.20;99.90;;;;;;5157553;27;20085;-86
2023/12/20 02:17:28;;;;;;;16.58;1.63;;;5.30;99.90;;;;;;5138996;27;20046;-86
2023/12/20 02:19:54;;;;;;;18.67;1.95;;;5.30;99.90;;;;;;5138884;27;20030;-85
2023/12/20 02:22:20;;;;;;;17.95;2.25;;;6.20;99.90;;;;;;5139133;27;20505;-85
2023/12/20 02:24:45;;;;;;;16.33;2.88;;;5.60;99.90;;;;;;5157456;27;20031;-85
2023/12/20 02:27:12;;;;;;;19.27;2.13;;;5.20;99.90;;;;;;5138560;27;20103;-86
2023/12/20 02:29:37;;;;;;;19.70;1.98;;;5.30;99.90;;;;;;5139007;27;20064;-85
2023/12/20 02:32:03;;;;;;;22.15;2.28;;;5.60;99.90;;;;;;5121831;27;20046;-85
2023/12/20 02:34:29;;;;;;;15.18;2.90;;;5.30;99.90;;;;;;5138693;27;20039;-85
2023/12/20 02:36:55;;;;;;;20.00;2.15;;;5.90;99.90;;;;;;5121048;27;20126;-85
2023/12/20 02:39:22;;;;;;;20.08;2.20;;;5.10;99.90;;;;;;5139466;27;20125;-85
2023/12/20 02:41:48;;;;;;;15.55;1.45;;;6.10;99.90;;;;;;5140248;27;20122;-85
2023/12/20 02:44:14;;;;;;;24.05;2.17;;;4.30;99.90;;;;;;5162269;27;20035;-86
2023/12/20 02:46:39;;;;;;;17.90;2.05;;;5.30;99.90;;;;;;5121035;27;20508;-86
2023/12/20 02:49:06;;;;;;;19.98;2.33;;;5.80;99.90;;;;;;5128142;27;20094;-85
2023/12/20 02:51:32;;;;;;;27.70;2.75;;;5.90;99.90;;;;;;5157079;27;20058;-85
2023/12/20 02:53:57;;;;;;;21.27;3.20;;;5.40;99.90;;;;;;5138196;27;20042;-85
2023/12/20 02:56:23;;;;;;;19.00;3.17;;;5.80;99.90;;;;;;5138096;27;20386;-85
2023/12/20 02:58:49;;;;;;;24.70;3.53;;;5.30;99.90;;;;;;5156507;27;20043;-85
2023/12/20 03:01:14;;;;;;;23.83;3.13;;;5.70;99.90;;;;;;5138547;27;20506;-86
2023/12/20 03:03:40;;;;;;;36.05;4.13;;;6.20;99.90;;;;;;5124039;27;20479;-85
2023/12/20 03:06:06;;;;;;;27.95;3.78;;;5.60;99.90;;;;;;5159215;27;20061;-86
2023/12/20 03:08:31;;;;;;;17.25;3.40;;;5.70;99.90;;;;;;5172652;27;20050;-85
2023/12/20 03:11:01;;;;;;;23.40;2.90;;;4.80;99.90;;;;;;5156114;27;20045;-86
2023/12/20 03:13:27;;;;;;;22.33;3.28;;;6.10;99.90;;;;;;5137360;27;20051;-85
2023/12/20 03:15:52;;;;;;;24.00;2.97;;;6.10;99.90;;;;;;5166680;27;20045;-85
2023/12/20 03:18:18;;;;;;;28.48;3.22;;;5.50;99.90;;;;;;5144370;27;20089;-86
2023/12/20 03:20:44;;;;;;;24.75;2.95;;;5.50;99.90;;;;;;5137503;27;20393;-85
2023/12/20 03:23:10;;;;;;;31.23;2.88;;;5.90;99.90;;;;;;5137937;27;20049;-86
2023/12/20 03:25:35;;;;;;;34.80;4.32;;;5.50;99.90;;;;;;5156397;27;20038;-86
2023/12/20 03:28:01;;;;;;;31.40;3.95;;;5.50;99.90;;;;;;5138069;27;20136;-86
2023/12/20 03:30:26;;;;;;;12.05;1.55;;;6.40;99.90;;;;;;5137113;27;20039;-86
2023/12/20 03:32:52;;;;;;;16.38;1.90;;;6.10;99.90;;;;;;5137575;27;20061;-85
2023/12/20 03:35:18;;;;;;;18.10;2.10;;;6.30;99.90;;;;;;5137659;27;20050;-85
2023/12/20 03:37:43;;;;;;;17.83;1.70;;;5.50;99.90;;;;;;5136987;27;20410;-86
2023/12/20 03:40:09;;;;;;;19.15;1.38;;;6.40;99.90;;;;;;5137561;27;20134;-86
2023/12/20 03:42:35;;;;;;;13.85;1.88;;;5.40;99.90;;;;;;5137227;27;20038;-85
2023/12/20 03:45:01;;;;;;;15.93;1.52;;;6.10;99.90;;;;;;5156028;27;20095;-85
2023/12/20 03:47:26;;;;;;;10.38;1.70;;;5.30;99.90;;;;;;5155804;27;20415;-86
2023/12/20 03:49:53;;;;;;;14.98;1.73;;;5.40;99.90;;;;;;5137352;27;20490;-86
2023/12/20 03:52:18;;;;;;;19.92;2.47;;;6.30;99.90;;;;;;5158970;27;20038;-86
2023/12/20 03:54:44;;;;;;;17.73;2.72;;;6.30;99.90;;;;;;5155883;27;20039;-86
2023/12/20 03:57:10;;;;;;;23.95;2.60;;;5.40;99.90;;;;;;5120176;27;20084;-85
2023/12/20 03:59:37;;;;;;;19.23;4.07;;;5.40;99.90;;;;;;5137407;27;20035;-85
2023/12/20 04:02:03;;;;;;;24.10;3.00;;;5.50;99.90;;;;;;5137127;27;20390;-85
2023/12/20 04:04:29;;;;;;;19.75;2.53;;;5.50;99.90;;;;;;5160977;27;20113;-86
2023/12/20 04:06:54;;;;;;;23.92;3.42;;;5.50;99.90;;;;;;5157929;27;20473;-85
2023/12/20 04:09:20;;;;;;;28.92;3.10;;;6.10;99.90;;;;;;5140379;27;20046;-85
2023/12/20 04:11:45;;;;;;;26.85;3.08;;;5.40;99.90;;;;;;5157380;27;20058;-86
2023/12/20 04:14:11;;;;;;;29.33;3.53;;;5.80;99.90;;;;;;5141368;27;20051;-85
2023/12/20 04:16:37;;;;;;;31.60;3.30;;;6.20;99.90;;;;;;5155534;27;20112;-86
2023/12/20 04:19:03;;;;;;;22.88;3.15;;;5.70;99.90;;;;;;5119267;27;20038;-86
2023/12/20 04:21:28;;;;;;;23.23;4.07;;;5.20;99.90;;;;;;5136850;27;20043;-85
2023/12/20 04:23:54;;;;;;;20.60;3.85;;;6.30;99.90;;;;;;5154754;27;20043;-86
2023/12/20 04:26:19;;;;;;;31.52;3.17;;;6.20;99.90;;;;;;5160124;27;20087;-85
2023/12/20 04:28:45;;;;;;;26.92;4.07;;;6.10;99.90;;;;;;5175963;27;20042;-86
2023/12/20 04:31:11;;;;;;;31.15;3.75;;;6.20;99.90;;;;;;5157429;27;20038;-86
2023/12/20 04:33:36;;;;;;;31.80;3.80;;;5.90;99.90;;;;;;5147090;27;20046;-85
2023/12/20 04:36:03;;;;;;;27.45;3.80;;;5.80;99.90;;;;;;5135937;27;20034;-85
2023/12/20 04:38:28;;;;;;;27.92;4.05;;;5.70;99.90;;;;;;5136064;27;20032;-85
2023/12/20 04:40:54;;;;;;;28.85;3.67;;;5.70;99.90;;;;;;5136589;27;20445;-85
2023/12/20 04:43:20;;;;;;;18.75;3.55;;;6.30;99.90;;;;;;5154465;27;20070;-86
2023/12/20 04:45:45;;;;;;;29.60;3.45;;;6.00;99.90;;;;;;5154470;27;20051;-85
2023/12/20 04:48:12;;;;;;;29.55;3.17;;;5.80;99.90;;;;;;5119442;27;20134;-86
2023/12/20 04:50:37;;;;;;;25.95;3.55;;;6.60;99.90;;;;;;5136565;27;20133;-85
2023/12/20 04:53:03;;;;;;;26.80;3.85;;;5.30;99.90;;;;;;5118956;27;20125;-86
2023/12/20 04:55:29;;;;;;;22.10;3.25;;;5.90;99.90;;;;;;5128634;27;20081;-86
2023/12/20 04:57:55;;;;;;;38.28;4.68;;;6.90;99.90;;;;;;5154502;27;20053;-86
2023/12/20 05:00:20;;;;;;;31.90;3.83;;;6.40;99.90;;;;;;5154741;27;20475;-86
2023/12/20 05:02:46;;;;;;;35.88;4.95;;;5.60;99.90;;;;;;5154721;27;20050;-86
2023/12/20 05:05:12;;;;;;;27.83;3.78;;;6.90;99.90;;;;;;5118543;27;20121;-85
2023/12/20 05:07:38;;;;;;;28.30;4.38;;;4.80;99.90;;;;;;5135673;27;20050;-86
2023/12/20 05:10:08;;;;;;;29.52;3.90;;;5.90;99.90;;;;;;5174917;27;20034;-86
2023/12/20 05:12:34;;;;;;;23.90;3.20;;;6.10;99.90;;;;;;5174093;27;20058;-86
2023/12/20 05:15:00;;;;;;;35.67;4.13;;;6.10;99.90;;;;;;5175260;27;20038;-86
2023/12/20 05:17:26;;;;;;;31.65;3.25;;;6.20;99.90;;;;;;5120443;27;20098;-86
2023/12/20 05:19:51;;;;;;;27.83;4.38;;;6.90;99.90;;;;;;5135598;27;20513;-86
2023/12/20 05:22:18;;;;;;;28.00;3.40;;;6.40;99.90;;;;;;5118056;27;20062;-86
2023/12/20 05:24:44;;;;;;;20.65;2.80;;;6.20;99.90;;;;;;5135940;27;20069;-86
2023/12/20 05:27:11;;;;;;;28.23;4.20;;;6.20;99.90;;;;;;5135505;27;20415;-87
2023/12/20 05:29:37;;;;;;;31.92;3.20;;;6.40;99.90;;;;;;5135870;27;20520;-87
2023/12/20 05:32:04;;;;;;;23.80;3.15;;;7.00;99.90;;;;;;5135341;27;20074;-86
2023/12/20 05:34:30;;;;;;;23.73;3.25;;;6.20;99.90;;;;;;5118702;27;20043;-86
2023/12/20 05:36:56;;;;;;;30.67;3.88;;;6.70;99.90;;;;;;5137445;27;20049;-86
2023/12/20 05:39:22;;;;;;;27.45;3.72;;;7.10;99.90;;;;;;5166170;27;20125;-87
2023/12/20 05:41:47;;;;;;;28.02;3.75;;;6.30;99.90;;;;;;5160801;27;20109;-87
2023/12/20 05:44:13;;;;;;;17.85;3.08;;;5.60;99.90;;;;;;5160599;27;20038;-86
2023/12/20 05:46:40;;;;;;;27.52;3.85;;;7.20;99.90;;;;;;5134491;27;20411;-86
2023/12/20 05:49:06;;;;;;;28.63;4.57;;;7.30;99.90;;;;;;5131773;27;20039;-86
2023/12/20 05:51:31;;;;;;;33.92;3.60;;;7.10;99.90;;;;;;5122417;27;20047;-86
2023/12/20 05:53:58;;;;;;;30.20;4.47;;;6.40;99.90;;;;;;5139186;27;20043;-86
2023/12/20 05:56:24;;;;;;;24.00;3.17;;;6.90;99.90;;;;;;5158025;27;20038;-86
2023/12/20 05:58:50;;;;;;;31.27;3.80;;;7.00;99.90;;;;;;5157792;27;20047;-86
2023/12/20 06:01:17;;;;;;;24.05;3.53;;;6.50;99.90;;;;;;5157997;27;20386;-86
2023/12/20 06:03:43;;;;;;;31.58;3.70;;;7.00;99.90;;;;;;5139663;27;20101;-86
2023/12/20 06:06:09;;;;;;;38.08;4.50;;;7.10;99.90;;;;;;5158229;27;20039;-86
2023/12/20 06:08:35;;;;;;;25.20;4.30;;;6.60;99.90;;;;;;5142507;27;20042;-86
2023/12/20 06:11:01;;;;;;;20.55;3.33;;;7.30;99.90;;;;;;5124897;27;20359;-86
2023/12/20 06:13:27;;;;;;;27.70;4.55;;;7.00;99.90;;;;;;5139146;27;20115;-86
2023/12/20 06:15:55;;;;;;;22.42;3.83;;;6.60;99.90;;;;;;5139117;27;20046;-86
2023/12/20 06:18:20;;;;;;;28.63;4.45;;;6.60;99.90;;;;;;5139074;27;20043;-86
2023/12/20 06:20:46;;;;;;;31.13;4.32;;;6.90;99.90;;;;;;5138421;27;20035;-86
2023/12/20 06:23:12;;;;;;;31.48;3.38;;;7.20;99.90;;;;;;5138539;27;20061;-85
2023/12/20 06:25:37;;;;;;;25.38;3.10;;;6.80;99.90;;;;;;5138797;27;20121;-87
2023/12/20 06:28:03;;;;;;;27.13;4.28;;;7.50;99.90;;;;;;5157462;27;20046;-86
2023/12/20 06:30:29;;;;;;;27.67;3.42;;;6.70;99.90;;;;;;5138634;27;20042;-85
2023/12/20 06:32:57;;;;;;;26.23;3.45;;;7.30;99.90;;;;;;5156998;27;20091;-86
2023/12/20 06:35:23;;;;;;;26.73;3.88;;;7.50;99.90;;;;;;5142049;27;20109;-86
2023/12/20 06:37:48;;;;;;;36.00;4.70;;;6.80;99.90;;;;;;5177270;27;20174;-86
2023/12/20 06:40:14;;;;;;;24.60;3.55;;;7.10;99.90;;;;;;5178098;27;20042;-85
2023/12/20 06:42:40;;;;;;;31.73;4.20;;;6.70;99.90;;;;;;5146390;27;20034;-86
2023/12/20 06:45:06;;;;;;;27.75;3.47;;;6.70;99.90;;;;;;5157169;27;20039;-86
2023/12/20 06:47:31;;;;;;;25.52;4.43;;;6.80;99.90;;;;;;5121659;27;20031;-86
2023/12/20 06:49:57;;;;;;;34.25;4.13;;;6.70;99.90;;;;;;5138183;27;20035;-86
2023/12/20 06:52:22;;;;;;;25.92;3.88;;;7.20;99.90;;;;;;5157387;27;20116;-86
2023/12/20 06:54:48;;;;;;;30.02;4.30;;;7.10;99.90;;;;;;5138509;27;20046;-85
2023/12/20 06:57:14;;;;;;;34.42;4.40;;;6.80;99.90;;;;;;5138221;27;20045;-86
2023/12/20 06:59:41;;;;;;;28.25;4.65;;;7.40;99.90;;;;;;5121585;27;20043;-85
2023/12/20 07:02:08;;;;;;;26.23;4.13;;;6.80;99.90;;;;;;5138428;27;20034;-86
2023/12/20 07:04:33;;;;;;;33.65;4.20;;;7.40;99.90;;;;;;5138272;27;20391;-86
2023/12/20 07:07:00;;;;;;;32.60;4.60;;;7.20;99.90;;;;;;5121026;27;20042;-86
2023/12/20 07:09:28;;;;;;;22.90;4.38;;;6.80;99.90;;;;;;5137977;27;20039;-85
2023/12/20 07:11:54;;;;;;;41.28;5.53;;;7.20;99.90;;;;;;5141098;27;20054;-86
2023/12/20 07:14:19;;;;;;;25.23;4.63;;;6.90;99.90;;;;;;5133301;27;20096;-86
2023/12/20 07:16:45;;;;;;;28.13;3.90;;;6.90;99.90;;;;;;5140511;27;20046;-86
2023/12/20 07:19:11;;;;;;;34.40;4.95;;;7.60;99.90;;;;;;5158008;27;20114;-87
2023/12/20 07:21:36;;;;;;;25.65;3.40;;;7.70;99.90;;;;;;5138086;27;20142;-86
2023/12/20 07:24:02;;;;;;;30.30;4.28;;;7.50;99.90;;;;;;5137920;27;20050;-85
2023/12/20 07:26:28;;;;;;;28.00;4.38;;;7.00;99.90;;;;;;5137713;27;20395;-86
2023/12/20 07:28:54;;;;;;;24.40;3.40;;;7.10;99.90;;;;;;5155937;27;20046;-86
2023/12/20 07:31:19;;;;;;;26.02;3.88;;;7.60;99.90;;;;;;5137714;27;20406;-86
2023/12/20 07:33:45;;;;;;;24.10;3.95;;;7.70;99.90;;;;;;5120751;27;20061;-87
2023/12/20 07:36:12;;;;;;;25.67;4.13;;;7.90;99.90;;;;;;5120991;27;20042;-88
2023/12/20 07:38:38;;;;;;;32.90;4.40;;;7.60;99.90;;;;;;5156031;27;20031;-88
2023/12/20 07:41:04;;;;;;;30.08;4.35;;;7.00;99.90;;;;;;5123482;27;20455;-87
2023/12/20 07:43:29;;;;;;;24.52;4.28;;;7.20;99.90;;;;;;5150720;27;20133;-87
2023/12/20 07:45:55;;;;;;;26.40;4.03;;;7.40;99.90;;;;;;5137164;27;20113;-84
2023/12/20 07:48:21;;;;;;;29.98;4.28;;;7.20;99.90;;;;;;5120359;27;20042;-84
2023/12/20 07:50:47;;;;;;;25.17;3.78;;;7.80;99.90;;;;;;5155455;27;20122;-84
2023/12/20 07:53:12;;;;;;;23.30;3.75;;;7.50;99.90;;;;;;5171294;27;20038;-84
2023/12/20 07:55:39;;;;;;;29.38;3.92;;;7.40;99.90;;;;;;5157912;27;20558;-84
2023/12/20 07:58:05;;;;;;;28.38;4.57;;;8.10;99.90;;;;;;5176938;27;20043;-84
2023/12/20 08:00:30;;;;;;;24.20;4.35;;;8.00;99.90;;;;;;5149487;27;20110;-84
2023/12/20 08:02:56;;;;;;;22.23;3.45;;;7.20;99.90;;;;;;5136311;27;20380;-83
2023/12/20 08:05:22;;;;;;;25.90;4.82;;;7.50;99.90;;;;;;5137332;27;20042;-87
2023/12/20 08:07:47;;;;;;;22.98;3.63;;;7.80;99.90;;;;;;5123334;27;20046;-87
2023/12/20 08:10:13;;;;;;;27.38;3.60;;;8.00;99.90;;;;;;5145484;27;20386;-88
2023/12/20 08:12:39;;;;;;;27.20;4.13;;;7.70;99.90;;;;;;5136230;27;20110;-87
2023/12/20 08:15:06;;;;;;;28.60;4.57;;;7.40;99.90;;;;;;5171601;27;20045;-88
2023/12/20 08:17:31;;;;;;;23.15;3.58;;;7.40;99.90;;;;;;5140053;27;20050;-87
2023/12/20 08:19:57;;;;;;;30.08;3.97;;;8.10;99.90;;;;;;5177375;27;20045;-86
2023/12/20 08:22:23;;;;;;;20.20;3.63;;;7.50;99.90;;;;;;5176929;27;20486;-88
2023/12/20 08:24:49;;;;;;;29.58;4.40;;;8.30;99.90;;;;;;5157244;27;20122;-87
2023/12/20 08:27:15;;;;;;;26.05;4.18;;;7.40;99.90;;;;;;5157423;27;20129;-87
2023/12/20 08:29:43;;;;;;;11.05;1.48;;;7.90;99.90;;;;;;5157959;27;20401;-87
2023/12/20 08:32:09;;;;;;;8.15;1.00;;;7.90;99.90;;;;;;5156006;27;20042;-86
2023/12/20 08:34:35;;;;;;;7.40;0.63;;;6.80;99.90;;;;;;5157356;27;20034;-86
2023/12/20 08:37:01;;;;;;;4.45;0.50;;;7.10;99.90;;;;;;5169327;27;20094;-87
2023/12/20 08:39:26;;;;;;;6.35;0.68;;;6.30;99.90;;;;;;5138778;27;20125;-86
2023/12/20 08:41:52;;;;;;;5.57;0.63;;;6.60;99.90;;;;;;5156593;27;20089;-87
2023/12/20 08:44:18;;;;;;;9.25;1.67;;;6.80;99.90;;;;;;5175581;27;20113;-87
2023/12/20 08:46:43;;;;;;;6.18;1.30;;;6.30;99.90;;;;;;5157245;27;20045;-86
2023/12/20 08:49:09;;;;;;;9.13;0.90;;;5.90;99.90;;;;;;5139950;27;20175;-87
2023/12/20 08:51:35;;;;;;;11.73;1.73;;;6.70;99.90;;;;;;5156990;27;20038;-87
2023/12/20 08:54:01;;;;;;;11.00;1.60;;;5.90;99.90;;;;;;5139709;27;20042;-87
2023/12/20 08:56:26;;;;;;;9.10;1.17;;;6.50;99.90;;;;;;5156549;27;20058;-87
2023/12/20 08:58:52;;;;;;;6.03;1.20;;;5.90;99.90;;;;;;5174660;27;20397;-86
2023/12/20 09:01:18;;;;;;;13.65;1.30;;;6.30;99.90;;;;;;5157046;27;20046;-87
2023/12/20 09:03:43;;;;;;;14.07;1.27;;;6.00;99.90;;;;;;5175653;27;20041;-87
2023/12/20 09:06:09;;;;;;;8.10;0.80;;;6.60;99.90;;;;;;5140775;27;20046;-87
2023/12/20 09:08:35;;;;;;;6.00;1.10;;;5.70;99.90;;;;;;5157683;27;20053;-88
2023/12/20 09:11:00;;;;;;;6.88;1.08;;;6.20;99.90;;;;;;5156664;27;20042;-87
2023/12/20 09:13:28;;;;;;;11.88;1.10;;;5.80;99.90;;;;;;5138993;27;20050;-86
2023/12/20 09:15:55;;;;;;;7.45;1.00;;;4.60;99.90;;;;;;5175250;27;20094;-86
2023/12/20 09:18:21;;;;;;;14.82;1.52;;;6.50;99.90;;;;;;5175025;27;20034;-86
2023/12/20 09:20:47;;;;;;;11.85;1.23;;;4.70;99.90;;;;;;5139234;27;20038;-87
2023/12/20 09:23:12;;;;;;;8.98;1.33;;;5.60;99.90;;;;;;5156952;27;20045;-87
2023/12/20 09:25:38;;;;;;;15.82;1.45;;;6.10;99.90;;;;;;5156475;27;20042;-86
2023/12/20 09:28:04;;;;;;;10.68;1.00;;;6.50;99.90;;;;;;5156697;27;20038;-87
2023/12/20 09:30:30;;;;;;;14.63;1.63;;;5.70;99.90;;;;;;5156407;27;20505;-86
2023/12/20 09:32:55;;;;;;;13.93;1.52;;;6.30;99.90;;;;;;5138623;27;20046;-87
2023/12/20 09:35:21;;;;;;;24.35;2.78;;;6.50;99.90;;;;;;5175345;27;20042;-87
2023/12/20 09:37:48;;;;;;;10.20;0.98;;;5.80;99.90;;;;;;5156446;27;20081;-86
2023/12/20 09:40:14;;;;;;;18.30;1.15;;;6.50;99.90;;;;;;5175185;27;20034;-87
2023/12/20 09:43:03;;;;;;;14.07;1.10;;;6.20;99.90;;;;;;5156349;27;20050;-86
2023/12/20 09:45:31;;;;;;;17.20;2.00;;;5.80;99.90;;;;;;5156725;27;20046;-86
2023/12/20 09:47:58;;;;;;;12.45;0.95;;;6.60;99.90;;;;;;5174983;27;20042;-86
2023/12/20 09:50:24;;;;;;;8.35;1.08;;;6.80;99.90;;;;;;5139037;27;20046;-86
2023/12/20 09:52:51;;;;;;;11.23;1.40;;;6.60;99.90;;;;;;5174938;27;20137;-87
2023/12/20 09:55:21;;;;;;;16.25;2.40;;;6.70;99.90;;;;;;5156482;27;20450;-86
2023/12/20 09:57:48;;;;;;;10.27;1.00;;;6.60;99.90;;;;;;5156135;27;20042;-87
2023/12/20 10:00:14;;;;;;;7.75;1.00;;;6.60;99.90;;;;;;5155702;27;20083;-87
2023/12/20 10:02:49;;;;;;;12.45;0.90;;;5.80;99.90;;;;;;5155366;27;20050;-87
2023/12/20 10:05:20;;;;;;;8.07;0.75;;;5.90;99.90;;;;;;5138958;27;20486;-87
2023/12/20 10:07:47;;;;;;;11.40;1.30;;;6.70;99.90;;;;;;5156071;27;20102;-87
2023/12/20 10:10:13;;;;;;;6.85;1.00;;;5.50;99.90;;;;;;5156467;27;20061;-87
2023/12/20 10:12:39;;;;;;;12.68;0.93;;;6.00;99.90;;;;;;5156233;27;20089;-87
2023/12/20 10:15:06;;;;;;;6.10;1.00;;;6.50;99.90;;;;;;5155985;27;20077;-87
2023/12/20 10:17:32;;;;;;;16.20;1.27;;;6.10;99.90;;;;;;5156029;27;20333;-87
2023/12/20 10:19:58;;;;;;;8.77;1.25;;;6.50;99.90;;;;;;5138601;27;20038;-87
2023/12/20 10:22:24;;;;;;;12.98;1.23;;;6.30;99.90;;;;;;5155946;27;20042;-87
2023/12/20 10:24:50;;;;;;;11.48;2.72;;;6.90;99.90;;;;;;5157203;27;20085;-87
2023/12/20 10:27:19;;;;;;;13.48;1.52;;;6.30;99.90;;;;;;5160262;27;20090;-86
2023/12/20 10:29:45;;;;;;;20.27;2.22;;;7.10;99.90;;;;;;5159781;27;20074;-87
2023/12/20 10:32:27;;;;;;;15.95;1.50;;;7.20;99.90;;;;;;5159825;27;20081;-86
2023/12/20 10:34:54;;;;;;;19.23;2.10;;;6.50;99.90;;;;;;5159484;27;20124;-87
2023/12/20 10:37:20;;;;;;;11.95;1.60;;;6.70;99.90;;;;;;5159507;27;20043;-87
2023/12/20 10:39:57;;;;;;;10.25;1.92;;;7.10;99.90;;;;;;5159502;27;20130;-87
2023/12/20 10:42:26;;;;;;;19.02;1.83;;;6.80;99.90;;;;;;5159492;27;20101;-87
2023/12/20 10:44:53;;;;;;;26.67;2.25;;;6.60;99.90;;;;;;5159574;27;20039;-87
2023/12/20 10:47:20;;;;;;;13.77;2.20;;;6.80;99.90;;;;;;5159354;27;20048;-86
2023/12/20 10:49:46;;;;;;;18.98;1.83;;;6.90;99.90;;;;;;5159311;27;20067;-87
2023/12/20 10:52:13;;;;;;;16.58;1.83;;;6.70;99.90;;;;;;5178083;27;20117;-87
2023/12/20 10:54:40;;;;;;;13.13;2.20;;;6.40;99.90;;;;;;5178167;27;20098;-87
2023/12/20 10:57:06;;;;;;;18.10;1.88;;;7.50;99.90;;;;;;5177780;27;20482;-88
2023/12/20 10:59:36;;;;;;;19.08;1.75;;;6.80;99.90;;;;;;5159179;27;20046;-86
2023/12/20 11:02:07;;;;;;;16.13;2.15;;;6.90;99.90;;;;;;5159441;27;20074;-87
2023/12/20 11:04:47;;;;;;;22.90;2.40;;;6.90;99.90;;;;;;5178003;27;20442;-87
2023/12/20 11:07:35;;;;;;;20.75;2.10;;;6.90;99.90;;;;;;5141691;27;20110;-87
2023/12/20 11:10:21;;;;;;;23.20;2.72;;;6.90;99.90;;;;;;5158829;27;20040;-87
2023/12/20 11:13:21;;;;;;;24.27;1.90;;;6.80;99.90;;;;;;5158609;27;20090;-87
2023/12/20 11:15:47;;;;;;;22.92;3.53;;;6.80;99.90;;;;;;5158942;27;20038;-87
2023/12/20 11:18:13;;;;;;;18.90;2.55;;;7.00;99.90;;;;;;5177262;27;20049;-88
2023/12/20 11:20:40;;;;;;;18.20;2.45;;;7.40;99.90;;;;;;5177389;27;20042;-87
2023/12/20 11:23:08;;;;;;;22.65;3.40;;;6.80;99.90;;;;;;5177650;27;20074;-87
2023/12/20 11:25:48;;;;;;;20.73;2.85;;;7.10;99.90;;;;;;5177434;27;20049;-88
2023/12/20 11:28:15;;;;;;;15.23;2.22;;;6.80;99.90;;;;;;5177125;27;20121;-87
2023/12/20 11:30:47;;;;;;;26.55;3.08;;;7.30;99.90;;;;;;5159083;27;20138;-87
2023/12/20 11:33:15;;;;;;;16.95;2.10;;;6.80;99.90;;;;;;5158776;27;20046;-87
2023/12/20 11:35:41;;;;;;;25.98;3.42;;;7.60;99.90;;;;;;5158413;27;20094;-87
2023/12/20 11:38:10;;;;;;;27.35;3.20;;;7.10;99.90;;;;;;5176548;27;20049;-87
2023/12/20 11:40:36;;;;;;;16.27;2.22;;;6.70;99.90;;;;;;5141055;27;20142;-88
2023/12/20 11:43:04;;;;;;;22.80;2.70;;;6.80;99.90;;;;;;5141208;27;20094;-87
2023/12/20 11:45:30;;;;;;;14.65;1.83;;;6.80;99.90;;;;;;5176941;27;20122;-87
2023/12/20 11:47:57;;;;;;;22.20;3.25;;;6.80;99.90;;;;;;5176775;27;20043;-87
2023/12/20 11:50:23;;;;;;;18.08;3.05;;;7.20;99.90;;;;;;5158272;27;20390;-88
2023/12/20 11:52:51;;;;;;;21.45;2.83;;;6.90;99.90;;;;;;5176890;27;20042;-87
2023/12/20 11:55:17;;;;;;;19.27;2.17;;;7.60;99.90;;;;;;5176973;27;20038;-87
2023/12/20 11:57:43;;;;;;;22.40;2.83;;;6.90;99.90;;;;;;5158236;27;20486;-87
2023/12/20 12:00:10;;;;;;;27.45;2.85;;;6.90;99.90;;;;;;5157718;27;20470;-88
2023/12/20 12:02:35;;;;;;;14.73;2.35;;;6.90;99.90;;;;;;5158162;27;20038;-87
2023/12/20 12:05:02;;;;;;;26.58;2.85;;;7.70;99.90;;;;;;5157767;27;20053;-87
2023/12/20 12:07:28;;;;;;;21.65;2.60;;;7.00;99.90;;;;;;5158102;27;20482;-88
2023/12/20 12:09:54;;;;;;;15.13;2.35;;;6.90;99.90;;;;;;5140259;27;20091;-88
2023/12/20 12:12:20;;;;;;;18.13;2.50;;;7.70;99.90;;;;;;5176588;27;20057;-88
2023/12/20 12:14:46;;;;;;;18.77;2.15;;;7.00;99.90;;;;;;5157817;27;20086;-87
2023/12/20 12:17:12;;;;;;;21.63;2.63;;;7.50;99.90;;;;;;5157791;27;20096;-87
2023/12/20 12:19:39;;;;;;;15.82;2.20;;;6.90;99.90;;;;;;5146905;27;20479;-89
2023/12/20 12:22:10;;;;;;;16.70;1.83;;;7.50;99.90;;;;;;5119743;27;20125;-88
2023/12/20 12:24:37;;;;;;;18.30;2.55;;;6.90;99.90;;;;;;5136932;27;20038;-87
2023/12/20 12:27:05;;;;;;;12.20;1.88;;;7.10;99.90;;;;;;5136895;27;20079;-87
2023/12/20 12:29:31;;;;;;;18.13;2.67;;;6.90;99.90;;;;;;5143542;27;20042;-87
2023/12/20 12:31:57;;;;;;;23.23;1.90;;;7.00;99.90;;;;;;5158228;27;20094;-87
2023/12/20 12:34:24;;;;;;;12.15;1.75;;;7.10;99.90;;;;;;5157874;27;20444;-88
2023/12/20 12:36:49;;;;;;;16.88;1.83;;;7.40;99.90;;;;;;5139899;27;20060;-87
2023/12/20 12:39:17;;;;;;;15.80;2.15;;;7.70;99.90;;;;;;5175624;27;20034;-87
2023/12/20 12:41:43;;;;;;;17.92;1.83;;;6.90;99.90;;;;;;5140080;27;20034;-88
2023/12/20 12:44:08;;;;;;;18.23;1.92;;;7.10;99.90;;;;;;5157599;27;20151;-89